Time;durP1;ratioP1;P1;durP2;ratioP2;P2;SDS_P1;SDS_P2;PMS_P1;PMS_P2;Temp;Humidity;BMP_temperature;BMP_pressure;BME280_temperature;BME280_humidity;BME280_pressure;Samples;Min_cycle;Max_cycle;Signal;HPM_P1;HPM_P2
2023/04/26 00:00:54;;;;;;;0.20;0.20;;;;;;;7.68;55.54;102058.47;5030537;28;20386;-80
2023/04/26 00:03:20;;;;;;;0.10;0.10;;;;;;;7.68;55.18;102068.16;5026619;28;20025;-81
2023/04/26 00:05:47;;;;;;;0.20;0.20;;;;;;;7.63;55.04;102065.47;5025455;28;20040;-81
2023/04/26 00:08:13;;;;;;;0.10;0.10;;;;;;;7.59;53.83;102063.66;5034006;28;20018;-80
2023/04/26 00:10:39;;;;;;;0.10;0.10;;;;;;;7.56;55.53;102067.16;5029486;28;20022;-81
2023/04/26 00:13:05;;;;;;;0.10;0.10;;;;;;;7.53;54.88;102069.75;5027713;28;20076;-81
2023/04/26 00:15:32;;;;;;;0.10;0.10;;;;;;;7.49;54.95;102067.03;5034012;28;20022;-80
2023/04/26 00:17:58;;;;;;;0.10;0.10;;;;;;;7.45;55.61;102066.09;5023705;28;20022;-81
2023/04/26 00:20:24;;;;;;;0.10;0.10;;;;;;;7.40;56.11;102071.34;5024636;28;20109;-80
2023/04/26 00:22:50;;;;;;;0.10;0.10;;;;;;;7.34;55.77;102060.72;5027571;28;20076;-80
2023/04/26 00:25:16;;;;;;;0.10;0.10;;;;;;;7.30;55.51;102061.53;5029187;28;20032;-80
2023/04/26 00:27:42;;;;;;;0.10;0.10;;;;;;;7.26;54.94;102063.25;5027547;28;20029;-80
2023/04/26 00:30:10;;;;;;;0.20;0.20;;;;;;;7.23;54.69;102059.69;5026231;28;20037;-79
2023/04/26 00:32:36;;;;;;;0.20;0.20;;;;;;;7.18;55.72;102064.00;5024637;28;20018;-80
2023/04/26 00:35:04;;;;;;;0.10;0.10;;;;;;;7.11;55.12;102061.28;5029679;28;20029;-80
2023/04/26 00:37:30;;;;;;;0.38;0.38;;;;;;;7.07;55.00;102058.59;5017598;28;20026;-81
2023/04/26 00:39:56;;;;;;;0.10;0.10;;;;;;;7.05;55.11;102062.94;5021771;28;20029;-81
2023/04/26 00:42:22;;;;;;;0.10;0.10;;;;;;;7.03;54.66;102062.94;5025021;28;20564;-81
2023/04/26 00:44:49;;;;;;;0.10;0.10;;;;;;;7.01;55.21;102059.38;5027276;28;20030;-81
2023/04/26 00:47:15;;;;;;;0.10;0.10;;;;;;;7.00;56.23;102067.28;5025721;28;20032;-80
2023/04/26 00:49:41;;;;;;;0.43;0.43;;;;;;;7.00;55.70;102062.00;5024398;28;20504;-81
2023/04/26 00:52:08;;;;;;;0.10;0.10;;;;;;;7.00;55.42;102060.22;5022333;28;20045;-80
2023/04/26 00:54:34;;;;;;;0.10;0.10;;;;;;;6.97;56.53;102054.94;5024381;28;20056;-80
2023/04/26 00:57:01;;;;;;;0.10;0.10;;;;;;;6.97;56.30;102062.84;5033267;28;20029;-80
2023/04/26 00:59:27;;;;;;;0.10;0.10;;;;;;;6.96;55.76;102058.44;5028721;28;20029;-80
2023/04/26 01:01:53;;;;;;;0.10;0.10;;;;;;;6.94;57.39;102055.78;5029707;28;20030;-81
2023/04/26 01:04:20;;;;;;;0.10;0.10;;;;;;;6.90;57.08;102051.34;5035751;28;20026;-81
2023/04/26 01:06:47;;;;;;;0.10;0.10;;;;;;;6.90;57.13;102053.06;5033399;28;20037;-79
2023/04/26 01:09:14;;;;;;;0.10;0.10;;;;;;;6.90;57.73;102066.25;5040864;28;20036;-80
2023/04/26 01:11:41;;;;;;;0.10;0.10;;;;;;;6.83;57.31;102056.47;5035587;28;20034;-79
2023/04/26 01:14:07;;;;;;;0.10;0.10;;;;;;;6.80;57.25;102055.59;5038181;28;20037;-80
2023/04/26 01:16:35;;;;;;;0.10;0.10;;;;;;;6.77;57.28;102059.91;5034462;28;20044;-80
2023/04/26 01:19:11;;;;;;;0.10;0.10;;;;;;;6.77;57.99;102063.41;5034827;28;20029;-80
2023/04/26 01:21:38;;;;;;;0.10;0.10;;;;;;;6.72;57.04;102061.59;5032223;28;20022;-80
2023/04/26 01:24:05;;;;;;;0.10;0.10;;;;;;;6.71;57.30;102060.69;5025447;28;20421;-79
2023/04/26 01:26:31;;;;;;;0.13;0.13;;;;;;;6.69;57.74;102067.72;5037778;28;20036;-80
2023/04/26 01:28:58;;;;;;;0.10;0.10;;;;;;;6.68;57.77;102067.66;5036534;28;20424;-80
2023/04/26 01:31:24;;;;;;;0.10;0.10;;;;;;;6.66;57.39;102066.75;5030411;28;20021;-80
2023/04/26 01:33:50;;;;;;;0.10;0.10;;;;;;;6.64;57.73;102064.09;5031896;28;20025;-81
2023/04/26 01:36:16;;;;;;;0.10;0.10;;;;;;;6.62;57.84;102066.69;5030376;28;20053;-80
2023/04/26 01:38:43;;;;;;;0.10;0.10;;;;;;;6.59;57.56;102066.66;5033593;28;20107;-79
2023/04/26 01:41:09;;;;;;;0.17;0.17;;;;;;;6.58;57.24;102066.63;5038112;28;20112;-79
2023/04/26 01:43:35;;;;;;;0.10;0.10;;;;;;;6.54;57.57;102067.44;5032407;28;20033;-79
2023/04/26 01:46:01;;;;;;;0.10;0.10;;;;;;;6.51;57.67;102062.13;5032878;28;20400;-79
2023/04/26 01:48:27;;;;;;;0.10;0.10;;;;;;;6.46;57.36;102060.28;5036813;28;20049;-79
2023/04/26 01:50:53;;;;;;;0.10;0.10;;;;;;;6.43;57.20;102060.25;5031989;28;20040;-80
2023/04/26 01:53:20;;;;;;;0.10;0.10;;;;;;;6.42;57.69;102063.75;5029223;28;20060;-80
2023/04/26 01:55:46;;;;;;;0.20;0.20;;;;;;;6.39;57.43;102063.72;5031898;28;20017;-79
2023/04/26 01:58:12;;;;;;;0.52;0.52;;;;;;;6.39;57.81;102055.81;5028187;28;20416;-79
2023/04/26 02:00:38;;;;;;;0.10;0.10;;;;;;;6.37;57.86;102062.78;5025951;28;20029;-80
2023/04/26 02:03:04;;;;;;;0.20;0.20;;;;;;;6.36;57.60;102063.63;5025276;28;20037;-80
2023/04/26 02:05:30;;;;;;;0.10;0.10;;;;;;;6.36;57.45;102065.41;5023187;28;20022;-79
2023/04/26 02:07:56;;;;;;;0.10;0.10;;;;;;;6.34;57.94;102065.34;5028113;28;20084;-79
2023/04/26 02:10:22;;;;;;;0.10;0.10;;;;;;;6.34;58.73;102060.09;5028437;28;20041;-79
2023/04/26 02:12:50;;;;;;;0.10;0.10;;;;;;;6.34;58.75;102054.81;5033579;28;20587;-78
2023/04/26 02:15:16;;;;;;;0.10;0.10;;;;;;;6.35;58.79;102067.13;5036604;28;20499;-79
2023/04/26 02:17:42;;;;;;;0.10;0.10;;;;;;;6.35;58.44;102061.88;5037950;28;20030;-80
2023/04/26 02:20:09;;;;;;;0.20;0.20;;;;;;;6.37;58.73;102059.25;5037761;28;20030;-79
2023/04/26 02:22:35;;;;;;;0.10;0.10;;;;;;;6.37;58.97;102056.63;5037418;28;20068;-79
2023/04/26 02:25:02;;;;;;;0.10;0.10;;;;;;;6.37;59.10;102060.16;5039742;28;20025;-79
2023/04/26 02:27:28;;;;;;;0.10;0.10;;;;;;;6.39;58.87;102060.16;5036601;28;20087;-79
2023/04/26 02:29:54;;;;;;;0.10;0.10;;;;;;;6.41;59.36;102064.59;5038125;28;20026;-79
2023/04/26 02:32:20;;;;;;;0.10;0.10;;;;;;;6.47;58.28;102063.84;5037993;28;20515;-80
2023/04/26 02:34:46;;;;;;;0.10;0.10;;;;;;;6.53;58.68;102066.56;5037512;28;20028;-79
2023/04/26 02:37:12;;;;;;;0.20;0.20;;;;;;;6.59;58.88;102060.50;5037102;28;20037;-80
2023/04/26 02:39:39;;;;;;;0.10;0.10;;;;;;;6.66;58.80;102062.38;5035745;28;20063;-79
2023/04/26 02:42:09;;;;;;;0.10;0.10;;;;;;;6.76;59.47;102053.75;5033394;28;20447;-79
2023/04/26 02:44:36;;;;;;;0.10;0.10;;;;;;;6.82;58.71;102052.06;5038194;28;20014;-79
2023/04/26 02:47:02;;;;;;;0.10;0.10;;;;;;;6.88;59.16;102052.16;5036445;28;20045;-79
2023/04/26 02:49:29;;;;;;;0.32;0.32;;;;;;;6.92;59.18;102046.09;5034529;28;20029;-81
2023/04/26 02:51:55;;;;;;;0.10;0.10;;;;;;;6.96;59.18;102043.50;5037971;28;20049;-81
2023/04/26 02:54:22;;;;;;;0.10;0.10;;;;;;;6.98;59.37;102043.53;5039182;28;20025;-81
2023/04/26 02:56:48;;;;;;;0.10;0.10;;;;;;;7.00;58.75;102044.44;5038077;28;20025;-79
2023/04/26 02:59:14;;;;;;;0.10;0.10;;;;;;;7.01;59.19;102048.84;5036117;28;20052;-80
2023/04/26 03:01:40;;;;;;;0.10;0.10;;;;;;;7.02;58.24;102049.75;5038558;28;20026;-81
2023/04/26 03:04:06;;;;;;;0.10;0.10;;;;;;;7.02;58.62;102039.19;5041575;28;20097;-81
2023/04/26 03:06:33;;;;;;;0.10;0.10;;;;;;;7.00;59.19;102036.53;5040407;28;20462;-81
2023/04/26 03:08:59;;;;;;;0.10;0.10;;;;;;;7.00;59.49;102035.66;5043624;28;20047;-80
2023/04/26 03:11:25;;;;;;;0.20;0.20;;;;;;;6.99;59.24;102040.03;5040159;28;20029;-80
2023/04/26 03:13:51;;;;;;;0.20;0.20;;;;;;;7.00;59.22;102046.19;5038622;28;20441;-80
2023/04/26 03:16:20;;;;;;;0.10;0.10;;;;;;;7.01;59.21;102045.34;5037934;28;20040;-81
2023/04/26 03:18:46;;;;;;;0.10;0.10;;;;;;;6.96;59.24;102053.16;5041394;28;20551;-79
2023/04/26 03:21:12;;;;;;;0.75;0.75;;;;;;;6.93;59.07;102040.84;5042829;28;20032;-81
2023/04/26 03:23:38;;;;;;;0.10;0.10;;;;;;;6.91;58.86;102037.28;5040729;28;20481;-79
2023/04/26 03:26:04;;;;;;;0.85;0.85;;;;;;;6.90;58.43;102042.53;5039577;28;20033;-81
2023/04/26 03:28:30;;;;;;;0.10;0.10;;;;;;;6.88;59.24;102046.88;5038272;28;20038;-79
2023/04/26 03:30:56;;;;;;;0.10;0.10;;;;;;;6.86;59.02;102043.34;5042599;28;20033;-80
2023/04/26 03:33:23;;;;;;;0.80;0.80;;;;;;;6.79;59.37;102037.09;5040895;28;20052;-80
2023/04/26 03:35:50;;;;;;;0.10;0.10;;;;;;;6.79;59.45;102040.63;5038460;28;20116;-81
2023/04/26 03:38:16;;;;;;;0.10;0.10;;;;;;;6.77;59.31;102033.56;5038003;28;20120;-80
2023/04/26 03:40:42;;;;;;;0.10;0.10;;;;;;;6.75;59.09;102032.66;5038328;28;20073;-80
2023/04/26 03:43:08;;;;;;;0.10;0.10;;;;;;;6.74;59.13;102033.50;5041665;28;20111;-80
2023/04/26 03:45:35;;;;;;;0.10;0.10;;;;;;;6.72;59.43;102037.91;5039489;28;20024;-79
2023/04/26 03:48:01;;;;;;;0.10;0.10;;;;;;;6.69;59.19;102035.19;5041773;28;20049;-80
2023/04/26 03:50:27;;;;;;;0.10;0.10;;;;;;;6.68;59.18;102036.06;5032531;28;20116;-80
2023/04/26 03:52:53;;;;;;;0.10;0.10;;;;;;;6.66;59.10;102025.50;5044889;28;20029;-80
2023/04/26 03:55:19;;;;;;;0.10;0.10;;;;;;;6.64;59.13;102025.47;5044765;28;20036;-80
2023/04/26 03:57:45;;;;;;;0.10;0.10;;;;;;;6.63;59.50;102022.84;5041183;28;20083;-80
2023/04/26 04:00:13;;;;;;;0.10;0.10;;;;;;;6.62;59.29;102015.78;5042546;28;20491;-80
2023/04/26 04:02:39;;;;;;;0.20;0.20;;;;;;;6.60;59.54;102012.25;5029265;28;20105;-80
2023/04/26 04:05:06;;;;;;;0.10;0.10;;;;;;;6.59;59.36;102021.91;5034870;28;20028;-80
2023/04/26 04:07:33;;;;;;;0.10;0.10;;;;;;;6.58;59.61;102022.75;5028091;28;20057;-80
2023/04/26 04:10:00;;;;;;;0.30;0.30;;;;;;;6.56;58.79;102023.59;5032918;28;20038;-80
2023/04/26 04:12:26;;;;;;;0.10;0.10;;;;;;;6.55;59.25;102027.09;5023798;28;20109;-80
2023/04/26 04:14:52;;;;;;;0.50;0.50;;;;;;;6.54;59.44;102022.69;5034662;28;20045;-79
2023/04/26 04:17:19;;;;;;;0.10;0.10;;;;;;;6.52;59.13;102022.66;5026692;28;20032;-80
2023/04/26 04:19:45;;;;;;;0.10;0.10;;;;;;;6.48;59.04;102023.47;5038186;28;20025;-78
2023/04/26 04:22:11;;;;;;;0.10;0.10;;;;;;;6.47;59.27;102033.09;5031774;28;20035;-80
2023/04/26 04:24:37;;;;;;;0.10;0.10;;;;;;;6.48;59.52;102032.25;5032068;28;20400;-80
2023/04/26 04:27:03;;;;;;;0.13;0.13;;;;;;;6.48;59.71;102036.66;5026284;28;20102;-81
2023/04/26 04:29:31;;;;;;;0.10;0.10;;;;;;;6.48;59.36;102036.66;5025622;28;20473;-80
2023/04/26 04:31:57;;;;;;;0.10;0.10;;;;;;;6.48;59.67;102044.53;5029872;28;20048;-80
2023/04/26 04:34:23;;;;;;;0.10;0.10;;;;;;;6.50;59.47;102047.19;5032727;28;20484;-80
2023/04/26 04:36:49;;;;;;;0.10;0.10;;;;;;;6.52;59.54;102043.72;5032613;28;20057;-79
2023/04/26 04:39:16;;;;;;;0.20;0.20;;;;;;;6.57;59.59;102046.44;5026263;28;20037;-80
2023/04/26 04:41:50;;;;;;;0.10;0.10;;;;;;;6.61;59.78;102038.59;5033599;28;20026;-81
2023/04/26 04:44:17;;;;;;;0.15;0.15;;;;;;;6.72;59.98;102046.66;5026241;28;20041;-80
2023/04/26 04:46:44;;;;;;;0.10;0.10;;;;;;;6.82;59.71;102039.78;5031139;28;20171;-81
2023/04/26 04:49:11;;;;;;;0.10;0.10;;;;;;;6.94;60.39;102046.97;5037008;28;20381;-80
2023/04/26 04:51:38;;;;;;;0.05;0.05;;;;;;;7.02;60.41;102045.34;5044823;28;20396;-80
2023/04/26 04:54:13;;;;;;;0.10;0.10;;;;;;;7.18;59.66;102029.72;5040453;28;20333;-80
2023/04/26 04:56:39;;;;;;;0.10;0.10;;;;;;;7.18;60.01;102041.19;5039357;28;20018;-80
2023/04/26 04:59:05;;;;;;;0.10;0.10;;;;;;;7.25;58.92;102039.50;5041544;28;20040;-80
2023/04/26 05:01:32;;;;;;;0.10;0.10;;;;;;;7.28;59.16;102036.91;5031834;28;20404;-80
2023/04/26 05:03:58;;;;;;;0.10;0.10;;;;;;;7.30;59.15;102032.53;5028053;28;20029;-80
2023/04/26 05:06:26;;;;;;;0.10;0.10;;;;;;;7.32;59.19;102038.72;5031085;28;20034;-80
2023/04/26 05:08:53;;;;;;;0.10;0.10;;;;;;;7.34;59.26;102038.72;5032591;28;20057;-80
2023/04/26 05:11:19;;;;;;;0.13;0.13;;;;;;;7.35;59.13;102038.78;5030701;28;20079;-80
2023/04/26 05:13:46;;;;;;;0.10;0.10;;;;;;;7.34;58.71;102034.34;5037792;28;20044;-80
2023/04/26 05:16:13;;;;;;;0.20;0.20;;;;;;;7.34;58.75;102034.34;5020724;28;20045;-80
2023/04/26 05:18:39;;;;;;;0.77;0.73;;;;;;;7.34;59.14;102041.34;5022376;28;20034;-80
2023/04/26 05:21:05;;;;;;;0.10;0.10;;;;;;;7.35;59.31;102040.50;5029753;28;20047;-80
2023/04/26 05:23:33;;;;;;;0.10;0.10;;;;;;;7.35;59.43;102038.78;5027096;28;20030;-81
2023/04/26 05:26:03;;;;;;;0.10;0.10;;;;;;;7.37;59.58;102042.28;5032499;28;20091;-80
2023/04/26 05:28:30;;;;;;;0.10;0.10;;;;;;;7.39;59.80;102039.66;5026039;28;20033;-80
2023/04/26 05:30:56;;;;;;;0.10;0.10;;;;;;;7.43;59.45;102045.00;5029947;28;20026;-80
2023/04/26 05:33:22;;;;;;;0.10;0.10;;;;;;;7.49;59.45;102043.31;5028483;28;20104;-81
2023/04/26 05:35:48;;;;;;;0.10;0.10;;;;;;;7.54;59.95;102049.50;5026879;28;20017;-79
2023/04/26 05:38:14;;;;;;;0.10;0.10;;;;;;;7.58;58.91;102046.06;5032366;28;20033;-80
2023/04/26 05:40:40;;;;;;;0.20;0.20;;;;;;;7.62;59.40;102042.59;5024346;28;20036;-80
2023/04/26 05:43:06;;;;;;;0.10;0.10;;;;;;;7.68;59.25;102053.22;5033024;28;20112;-80
2023/04/26 05:45:33;;;;;;;0.10;0.10;;;;;;;7.72;58.50;102055.00;5017733;28;20050;-80
2023/04/26 05:47:59;;;;;;;0.10;0.10;;;;;;;7.80;59.34;102057.75;5018663;28;20045;-80
2023/04/26 05:50:25;;;;;;;1.15;0.63;;;;;;;7.91;59.42;102061.38;5019381;28;20038;-81
2023/04/26 05:52:51;;;;;;;0.10;0.10;;;;;;;8.02;59.45;102056.19;5023990;28;20092;-80
2023/04/26 05:55:19;;;;;;;0.20;0.20;;;;;;;8.14;59.32;102060.72;5020522;28;20028;-81
2023/04/26 05:57:46;;;;;;;0.10;0.10;;;;;;;8.23;58.86;102052.88;5022432;28;20018;-79
2023/04/26 06:00:14;;;;;;;0.20;0.20;;;;;;;8.33;59.12;102053.84;5027884;28;20038;-80
2023/04/26 06:02:40;;;;;;;0.10;0.10;;;;;;;8.46;58.97;102053.97;5032573;28;20025;-79
2023/04/26 06:05:07;;;;;;;0.65;0.65;;;;;;;8.59;59.05;102058.50;5030773;28;20029;-80
2023/04/26 06:07:33;;;;;;;0.10;0.10;;;;;;;8.69;58.82;102057.69;5025627;28;20040;-79
2023/04/26 06:10:01;;;;;;;0.10;0.10;;;;;;;8.80;58.94;102067.44;5034534;28;20143;-79
2023/04/26 06:12:27;;;;;;;0.15;0.15;;;;;;;8.88;59.03;102063.13;5041603;28;20037;-79
2023/04/26 06:14:53;;;;;;;0.10;0.10;;;;;;;8.98;58.31;102070.22;5030567;28;20088;-81
2023/04/26 06:17:20;;;;;;;0.10;0.10;;;;;;;9.05;58.69;102060.59;5028918;28;20038;-82
2023/04/26 06:19:46;;;;;;;0.10;0.10;;;;;;;9.17;58.70;102070.34;5018397;28;20057;-81
2023/04/26 06:22:12;;;;;;;0.10;0.10;;;;;;;9.22;58.18;102074.78;5015404;28;20068;-81
2023/04/26 06:24:38;;;;;;;0.10;0.10;;;;;;;9.27;58.43;102074.81;5028152;28;20026;-79
2023/04/26 06:27:04;;;;;;;0.22;0.22;;;;;;;9.34;58.00;102079.25;5023115;28;20036;-81
2023/04/26 06:29:32;;;;;;;0.10;0.10;;;;;;;9.40;58.28;102078.41;5016127;28;20030;-81
2023/04/26 06:31:58;;;;;;;0.10;0.10;;;;;;;9.41;57.81;102079.28;5024443;28;20396;-82
2023/04/26 06:34:24;;;;;;;0.10;0.10;;;;;;;9.39;57.79;102082.81;5021684;28;20500;-81
2023/04/26 06:36:50;;;;;;;0.10;0.10;;;;;;;9.44;57.68;102079.31;5030387;28;20476;-80
2023/04/26 06:39:17;;;;;;;0.10;0.10;;;;;;;9.48;58.02;102089.00;5027443;28;20026;-80
2023/04/26 06:41:43;;;;;;;1.10;1.00;;;;;;;9.55;57.95;102088.16;5026693;28;20029;-81
2023/04/26 06:44:09;;;;;;;0.10;0.10;;;;;;;9.58;57.56;102082.88;5031062;28;20033;-80
2023/04/26 06:46:36;;;;;;;0.10;0.10;;;;;;;9.65;58.03;102079.38;5033463;28;20022;-81
2023/04/26 06:49:02;;;;;;;0.10;0.10;;;;;;;9.77;57.76;102083.84;5020221;28;20053;-81
2023/04/26 06:51:30;;;;;;;0.10;0.10;;;;;;;9.86;57.85;102073.28;5030382;28;20051;-80
2023/04/26 06:53:57;;;;;;;0.85;0.22;;;;;;;9.96;57.63;102084.78;5028589;28;20019;-82
2023/04/26 06:56:23;;;;;;;0.10;0.10;;;;;;;10.07;57.50;102073.31;5020671;28;20072;-80
2023/04/26 06:59:06;;;;;;;0.10;0.10;;;;;;;10.26;57.49;102075.13;5036194;28;20109;-81
2023/04/26 07:01:34;;;;;;;0.10;0.10;;;;;;;10.33;57.19;102074.25;5035000;28;20068;-81
2023/04/26 07:04:03;;;;;;;0.10;0.10;;;;;;;10.46;56.75;102074.28;5037802;28;20025;-80
2023/04/26 07:06:30;;;;;;;0.10;0.10;;;;;;;10.57;56.98;102083.13;5033554;28;20535;-81
2023/04/26 07:08:58;;;;;;;0.10;0.10;;;;;;;10.66;56.19;102075.16;5030046;28;20030;-81
2023/04/26 07:11:25;;;;;;;0.10;0.10;;;;;;;10.67;56.13;102079.56;5032599;28;20061;-81
2023/04/26 07:13:56;;;;;;;0.10;0.10;;;;;;;10.71;56.00;102074.28;5034086;28;20032;-81
2023/04/26 07:16:23;;;;;;;0.10;0.10;;;;;;;10.66;55.00;102077.81;5036070;28;20070;-81
2023/04/26 07:18:49;;;;;;;0.10;0.10;;;;;;;10.67;55.04;102078.69;5038160;28;20030;-81
2023/04/26 07:21:15;;;;;;;0.10;0.10;;;;;;;10.68;54.83;102065.44;5038411;28;20120;-81
2023/04/26 07:23:41;;;;;;;0.10;0.10;;;;;;;10.79;55.60;102069.84;5034978;28;20408;-81
2023/04/26 07:26:10;;;;;;;0.10;0.10;;;;;;;10.90;54.77;102069.84;5046976;28;20083;-81
2023/04/26 07:28:36;;;;;;;0.10;0.10;;;;;;;11.03;55.00;102075.97;5035513;28;20061;-81
2023/04/26 07:31:02;;;;;;;0.40;0.40;;;;;;;11.14;54.46;102076.84;5036970;28;20507;-81
2023/04/26 07:33:28;;;;;;;0.25;0.25;;;;;;;11.22;55.04;102074.19;5038593;28;20503;-81
2023/04/26 07:35:56;;;;;;;0.10;0.10;;;;;;;11.28;53.04;102079.47;5029667;28;20574;-82
2023/04/26 07:38:22;;;;;;;0.28;0.28;;;;;;;11.33;52.89;102075.91;5035599;28;20060;-81
2023/04/26 07:40:49;;;;;;;0.10;0.10;;;;;;;11.39;53.46;102079.41;5032880;28;20030;-81
2023/04/26 07:43:16;;;;;;;0.10;0.10;;;;;;;11.45;52.46;102074.09;5038350;28;20563;-81
2023/04/26 07:45:43;;;;;;;0.17;0.17;;;;;;;11.54;52.51;102079.38;5034194;28;20459;-81
2023/04/26 07:48:09;;;;;;;0.10;0.10;;;;;;;11.61;53.53;102086.44;5032840;28;20193;-81
2023/04/26 07:50:35;;;;;;;0.82;0.82;;;;;;;11.59;50.95;102076.69;5035170;28;20040;-81
2023/04/26 07:53:01;;;;;;;0.10;0.10;;;;;;;11.57;52.34;102083.78;5029707;28;20433;-81
2023/04/26 07:55:27;;;;;;;0.30;0.30;;;;;;;11.49;51.67;102086.47;5039516;28;20424;-81
2023/04/26 07:57:53;;;;;;;0.17;0.17;;;;;;;11.37;51.73;102097.16;5029565;28;20029;-82
2023/04/26 08:00:21;;;;;;;0.10;0.10;;;;;;;11.32;50.93;102100.66;5032940;28;20068;-81
2023/04/26 08:02:48;;;;;;;0.10;0.10;;;;;;;11.28;51.21;102093.63;5034452;28;20397;-81
2023/04/26 08:05:14;;;;;;;0.10;0.10;;;;;;;11.24;51.84;102091.88;5028987;28;20022;-81
2023/04/26 08:07:41;;;;;;;0.10;0.10;;;;;;;11.21;51.58;102099.81;5030717;28;20069;-81
2023/04/26 08:10:07;;;;;;;0.10;0.10;;;;;;;11.24;51.97;102101.56;5029772;28;20548;-81
2023/04/26 08:12:36;;;;;;;0.05;0.05;;;;;;;11.26;51.01;102094.50;5036595;28;20420;-81
2023/04/26 08:15:03;;;;;;;0.10;0.10;;;;;;;11.31;51.15;102100.69;5038060;28;20026;-81
2023/04/26 08:17:30;;;;;;;0.15;0.15;;;;;;;11.36;49.52;102100.69;5031451;28;20557;-80
2023/04/26 08:19:57;;;;;;;0.20;0.20;;;;;;;11.41;50.82;102109.50;5030376;28;20112;-80
2023/04/26 08:22:23;;;;;;;0.10;0.10;;;;;;;11.45;50.06;102097.97;5036024;28;20037;-80
2023/04/26 08:24:51;;;;;;;0.20;0.20;;;;;;;11.43;48.95;102091.81;5035889;28;20120;-79
2023/04/26 08:27:18;;;;;;;0.10;0.10;;;;;;;11.44;48.90;102096.22;5021434;28;20079;-82
2023/04/26 08:29:44;;;;;;;0.10;0.10;;;;;;;11.44;49.28;102096.22;5023919;28;20504;-82
2023/04/26 08:32:11;;;;;;;0.10;0.10;;;;;;;11.48;49.10;102095.31;5019656;28;20034;-80
2023/04/26 08:34:37;;;;;;;0.10;0.10;;;;;;;11.51;48.29;102095.31;5023955;28;20051;-81
2023/04/26 08:37:04;;;;;;;0.10;0.10;;;;;;;11.57;45.50;102095.28;5022242;28;20040;-81
2023/04/26 08:39:30;;;;;;;0.10;0.10;;;;;;;11.73;48.63;102095.22;5019830;28;20080;-82
2023/04/26 08:42:03;;;;;;;0.10;0.10;;;;;;;11.80;48.10;102096.94;5027751;28;20116;-81
2023/04/26 08:44:31;;;;;;;0.10;0.10;;;;;;;11.88;47.82;102091.63;5022705;28;20412;-81
2023/04/26 08:50:06;;;;;;;0.10;0.10;;;;;;;12.08;46.67;102081.78;5103130;27;1166931;-82
2023/04/26 08:52:34;;;;;;;0.10;0.10;;;;;;;12.09;43.92;102083.53;5128886;27;20311;-81
2023/04/26 08:55:01;;;;;;;0.08;0.08;;;;;;;12.19;46.18;102079.06;5133067;28;20098;-80
2023/04/26 08:57:30;;;;;;;0.15;0.15;;;;;;;12.24;46.07;102079.91;5128854;27;20039;-80
2023/04/26 08:59:57;;;;;;;0.25;0.25;;;;;;;12.29;46.58;102083.41;5119854;28;20075;-81
2023/04/26 09:02:23;;;;;;;0.10;0.10;;;;;;;12.22;44.88;102084.31;5125137;27;20035;-81
2023/04/26 09:04:50;;;;;;;0.10;0.10;;;;;;;12.22;45.86;102089.66;5118079;27;20031;-82
2023/04/26 09:07:39;;;;;;;0.00;0.00;;;;;;;12.23;46.22;102091.41;5111213;28;20399;-80
2023/04/26 09:10:06;;;;;;;0.10;0.10;;;;;;;12.14;45.38;102080.88;5113734;28;20546;-80
2023/04/26 09:12:33;;;;;;;0.10;0.10;;;;;;;12.12;46.12;102093.25;5121054;28;20031;-80
2023/04/26 09:15:00;;;;;;;0.05;0.05;;;;;;;12.17;45.58;102086.13;5110943;28;20032;-80
2023/04/26 09:17:41;;;;;;;0.10;0.10;;;;;;;12.30;45.89;102093.13;5115039;28;20070;-80
2023/04/26 09:20:28;;;;;;;0.10;0.10;;;;;;;12.44;45.90;102094.81;5123724;28;20023;-80
2023/04/26 09:23:09;;;;;;;0.10;0.10;;;;;;;12.52;45.60;102097.41;5115819;27;20046;-80
2023/04/26 09:25:36;;;;;;;0.10;0.10;;;;;;;12.52;44.17;102094.75;5118796;28;20107;-79
2023/04/26 09:28:03;;;;;;;0.10;0.10;;;;;;;12.59;44.45;102094.69;5120845;28;20024;-80
2023/04/26 09:30:36;;;;;;;0.10;0.10;;;;;;;12.71;44.54;102092.81;5124388;28;20046;-79
2023/04/26 09:33:05;;;;;;;2.13;1.55;;;;;;;12.87;44.20;102089.13;5128255;28;20031;-78
2023/04/26 09:35:40;;;;;;;0.10;0.10;;;;;;;13.10;43.11;102085.34;5117554;28;20083;-79
2023/04/26 09:43:21;;;;;;;0.10;0.10;;;;;;;13.46;42.29;102082.31;5110293;27;20140;-79
2023/04/26 09:48:33;;;;;;;0.10;0.10;;;;;;;13.61;41.65;102078.56;5092048;27;20512;-82
2023/04/26 09:51:10;;;;;;;0.10;0.10;;;;;;;13.65;41.46;102083.84;5083697;28;20035;-80
2023/04/26 09:53:40;;;;;;;0.10;0.10;;;;;;;13.67;41.90;102076.72;5086526;28;20424;-80
2023/04/26 09:56:17;;;;;;;0.10;0.10;;;;;;;13.72;41.88;102081.97;5094429;28;20488;-80
2023/04/26 10:01:20;;;;;;;0.13;0.13;;;;;;;13.77;42.43;102071.25;5111642;27;20870;-79
2023/04/26 10:03:46;;;;;;;0.10;0.10;;;;;;;13.73;41.17;102075.75;5110290;28;20144;-78
2023/04/26 10:06:12;;;;;;;0.20;0.20;;;;;;;13.67;40.73;102073.16;5111518;28;20044;-79
2023/04/26 10:08:40;;;;;;;0.10;0.10;;;;;;;13.62;41.89;102067.03;5111547;28;20107;-81
2023/04/26 10:11:08;;;;;;;0.13;0.13;;;;;;;13.56;41.26;102074.19;5111188;28;20099;-81
2023/04/26 10:13:34;;;;;;;2.90;1.75;;;;;;;13.51;40.54;102070.72;5113314;28;20027;-79
2023/04/26 10:16:01;;;;;;;0.10;0.10;;;;;;;13.43;41.29;102072.56;5110948;28;20050;-79
2023/04/26 10:18:28;;;;;;;0.10;0.10;;;;;;;13.35;41.47;102082.44;5105352;28;20031;-79
2023/04/26 10:20:59;;;;;;;0.10;0.10;;;;;;;13.26;42.02;102078.97;5104905;28;20034;-79
2023/04/26 10:23:26;;;;;;;0.10;0.10;;;;;;;13.21;42.57;102080.78;5111260;28;20064;-79
2023/04/26 10:25:53;;;;;;;0.10;0.10;;;;;;;13.19;42.74;102081.72;5107608;28;20036;-78
2023/04/26 10:31:16;;;;;;;0.30;0.30;;;;;;;13.09;42.18;102083.59;5066580;28;20143;-80
2023/04/26 10:33:43;;;;;;;0.10;0.10;;;;;;;13.02;42.74;102081.88;5060836;28;20058;-80
2023/04/26 10:36:12;;;;;;;0.17;0.17;;;;;;;13.05;42.43;102092.50;5061493;28;20063;-80
2023/04/26 10:38:50;;;;;;;0.40;0.40;;;;;;;13.02;42.19;102088.09;5058636;28;20399;-80
2023/04/26 10:41:34;;;;;;;0.10;0.10;;;;;;;13.15;42.21;102088.84;5049755;28;20040;-80
2023/04/26 10:44:37;;;;;;;0.10;0.10;;;;;;;13.23;42.18;102087.00;5051081;28;20033;-81
2023/04/26 10:47:06;;;;;;;0.20;0.20;;;;;;;13.32;42.84;102074.47;5045265;28;20481;-81
2023/04/26 10:49:45;;;;;;;0.10;0.10;;;;;;;13.49;41.29;102071.63;5043810;28;20412;-80
2023/04/26 10:52:13;;;;;;;0.10;0.10;;;;;;;13.55;42.12;102069.75;5050031;28;20029;-80
2023/04/26 10:54:56;;;;;;;0.10;0.10;;;;;;;13.71;41.66;102067.78;5041908;28;20040;-80
2023/04/26 10:57:44;;;;;;;0.10;0.10;;;;;;;13.74;41.44;102061.53;5047617;28;20496;-80
2023/04/26 11:05:37;;;;;;;0.10;0.10;;;;;;;13.73;41.41;102057.09;5121436;27;20404;-81
2023/04/26 11:10:41;;;;;;;0.10;0.10;;;;;;;14.05;40.32;102050.44;5108150;27;20446;-81
2023/04/26 11:13:08;;;;;;;0.10;0.10;;;;;;;14.20;39.51;102047.53;5106555;28;20028;-83
2023/04/26 11:15:34;;;;;;;0.03;0.03;;;;;;;14.24;38.53;102056.34;5105065;28;20389;-80
2023/04/26 11:18:03;;;;;;;0.10;0.10;;;;;;;14.38;38.30;102046.34;5095467;28;20035;-81
2023/04/26 11:20:30;;;;;;;0.10;0.10;;;;;;;14.57;38.99;102044.25;5093911;28;20028;-79
2023/04/26 11:22:57;;;;;;;0.10;0.10;;;;;;;14.85;37.84;102037.56;5096068;28;20028;-79
2023/04/26 11:25:26;;;;;;;0.10;0.10;;;;;;;15.10;38.11;102032.63;5090419;28;20081;-80
2023/04/26 11:27:57;;;;;;;0.10;0.10;;;;;;;15.32;38.42;102037.53;5090447;28;20029;-81
2023/04/26 11:30:24;;;;;;;0.10;0.10;;;;;;;15.46;37.56;102024.75;5090163;28;20064;-80
2023/04/26 11:32:50;;;;;;;0.20;0.20;;;;;;;15.57;35.21;102027.22;5092547;28;20029;-80
2023/04/26 11:35:16;;;;;;;0.35;0.35;;;;;;;15.72;35.34;102036.69;5091370;28;20032;-80
2023/04/26 11:37:44;;;;;;;0.30;0.30;;;;;;;15.78;36.30;102027.66;5090742;28;20036;-80
2023/04/26 11:40:11;;;;;;;0.10;0.10;;;;;;;15.71;35.51;102018.00;5090235;28;20100;-80
2023/04/26 11:42:37;;;;;;;0.43;0.43;;;;;;;15.61;35.27;102022.69;5091611;28;20028;-80
2023/04/26 11:45:05;;;;;;;0.10;0.10;;;;;;;15.61;35.29;102025.34;5091692;28;20055;-80
2023/04/26 11:47:33;;;;;;;0.10;0.10;;;;;;;15.55;36.77;102023.69;5084972;28;20028;-80
2023/04/26 11:50:02;;;;;;;0.10;0.10;;;;;;;15.49;36.46;102026.53;5090651;28;20039;-79
2023/04/26 11:52:28;;;;;;;0.10;0.10;;;;;;;15.44;36.32;102023.03;5091193;28;20024;-80
2023/04/26 11:55:05;;;;;;;0.10;0.10;;;;;;;15.48;37.53;102017.59;5091613;28;20088;-80